sensor_id;sensor_type;location;lat;lon;timestamp;temperature;humidity
56162;DHT22;42045;52.986;6.014;2023-07-02T00:01:43;15.70;99.90
56162;DHT22;42045;52.986;6.014;2023-07-02T00:04:09;15.70;99.90
56162;DHT22;42045;52.986;6.014;2023-07-02T00:06:35;15.70;99.90
56162;DHT22;42045;52.986;6.014;2023-07-02T00:09:09;15.70;99.90
56162;DHT22;42045;52.986;6.014;2023-07-02T00:11:39;15.70;99.90
56162;DHT22;42045;52.986;6.014;2023-07-02T00:14:06;15.70;99.90
56162;DHT22;42045;52.986;6.014;2023-07-02T00:16:32;15.70;99.90
56162;DHT22;42045;52.986;6.014;2023-07-02T00:18:59;15.70;99.90
56162;DHT22;42045;52.986;6.014;2023-07-02T00:21:26;15.70;99.90
56162;DHT22;42045;52.986;6.014;2023-07-02T00:23:56;15.60;99.90
56162;DHT22;42045;52.986;6.014;2023-07-02T00:26:25;15.60;99.90
56162;DHT22;42045;52.986;6.014;2023-07-02T00:28:55;15.60;99.90
56162;DHT22;42045;52.986;6.014;2023-07-02T00:31:21;15.60;99.90
56162;DHT22;42045;52.986;6.014;2023-07-02T00:33:47;15.50;99.90
56162;DHT22;42045;52.986;6.014;2023-07-02T00:36:14;15.50;99.90
56162;DHT22;42045;52.986;6.014;2023-07-02T00:38:45;15.50;99.90
56162;DHT22;42045;52.986;6.014;2023-07-02T00:41:11;15.50;99.90
56162;DHT22;42045;52.986;6.014;2023-07-02T00:43:37;15.40;99.90
56162;DHT22;42045;52.986;6.014;2023-07-02T00:46:16;15.40;99.90
56162;DHT22;42045;52.986;6.014;2023-07-02T00:48:44;15.40;99.90
56162;DHT22;42045;52.986;6.014;2023-07-02T00:51:13;15.40;99.90
56162;DHT22;42045;52.986;6.014;2023-07-02T00:53:40;15.40;99.90
56162;DHT22;42045;52.986;6.014;2023-07-02T00:56:05;15.40;99.90
56162;DHT22;42045;52.986;6.014;2023-07-02T00:58:33;15.30;99.90
56162;DHT22;42045;52.986;6.014;2023-07-02T01:01:02;15.20;99.90
56162;DHT22;42045;52.986;6.014;2023-07-02T01:03:28;15.10;99.90
56162;DHT22;42045;52.986;6.014;2023-07-02T01:05:54;15.10;99.90
56162;DHT22;42045;52.986;6.014;2023-07-02T01:08:20;15.00;99.90
56162;DHT22;42045;52.986;6.014;2023-07-02T01:10:46;14.90;99.90
56162;DHT22;42045;52.986;6.014;2023-07-02T01:13:14;14.90;99.90
56162;DHT22;42045;52.986;6.014;2023-07-02T01:15:42;14.80;99.90
56162;DHT22;42045;52.986;6.014;2023-07-02T01:18:10;14.80;99.90
56162;DHT22;42045;52.986;6.014;2023-07-02T01:20:36;14.70;99.90
56162;DHT22;42045;52.986;6.014;2023-07-02T01:23:03;14.60;99.90
56162;DHT22;42045;52.986;6.014;2023-07-02T01:25:29;14.60;99.90
56162;DHT22;42045;52.986;6.014;2023-07-02T01:27:55;14.60;99.90
56162;DHT22;42045;52.986;6.014;2023-07-02T01:30:22;14.50;99.90
56162;DHT22;42045;52.986;6.014;2023-07-02T01:32:47;14.50;99.90
56162;DHT22;42045;52.986;6.014;2023-07-02T01:35:13;14.40;99.90
56162;DHT22;42045;52.986;6.014;2023-07-02T01:37:38;14.40;99.90
56162;DHT22;42045;52.986;6.014;2023-07-02T01:40:04;14.40;99.90
56162;DHT22;42045;52.986;6.014;2023-07-02T01:42:37;14.30;99.90
56162;DHT22;42045;52.986;6.014;2023-07-02T01:45:04;14.40;99.90
56162;DHT22;42045;52.986;6.014;2023-07-02T01:47:29;14.30;99.90
56162;DHT22;42045;52.986;6.014;2023-07-02T01:49:55;14.30;99.90
56162;DHT22;42045;52.986;6.014;2023-07-02T01:52:21;14.30;99.90
56162;DHT22;42045;52.986;6.014;2023-07-02T01:54:46;14.30;99.90
56162;DHT22;42045;52.986;6.014;2023-07-02T01:57:12;14.20;99.90
56162;DHT22;42045;52.986;6.014;2023-07-02T01:59:38;14.20;99.90
56162;DHT22;42045;52.986;6.014;2023-07-02T02:02:04;14.20;99.90
56162;DHT22;42045;52.986;6.014;2023-07-02T02:04:30;14.30;99.90
56162;DHT22;42045;52.986;6.014;2023-07-02T02:06:56;14.30;99.90
56162;DHT22;42045;52.986;6.014;2023-07-02T02:09:21;14.30;99.90
56162;DHT22;42045;52.986;6.014;2023-07-02T02:11:51;14.40;99.90
56162;DHT22;42045;52.986;6.014;2023-07-02T02:14:18;14.40;99.90
56162;DHT22;42045;52.986;6.014;2023-07-02T02:16:44;14.40;99.90
56162;DHT22;42045;52.986;6.014;2023-07-02T02:19:13;14.40;99.90
56162;DHT22;42045;52.986;6.014;2023-07-02T02:21:42;14.30;99.90
56162;DHT22;42045;52.986;6.014;2023-07-02T02:24:08;14.30;99.90
56162;DHT22;42045;52.986;6.014;2023-07-02T02:26:34;14.30;99.90
56162;DHT22;42045;52.986;6.014;2023-07-02T02:29:00;14.30;99.90
56162;DHT22;42045;52.986;6.014;2023-07-02T02:31:26;14.20;99.90
56162;DHT22;42045;52.986;6.014;2023-07-02T02:33:52;14.20;99.90
56162;DHT22;42045;52.986;6.014;2023-07-02T02:36:17;14.10;99.90
56162;DHT22;42045;52.986;6.014;2023-07-02T02:38:43;14.10;99.90
56162;DHT22;42045;52.986;6.014;2023-07-02T02:41:09;14.10;99.90
56162;DHT22;42045;52.986;6.014;2023-07-02T02:43:34;14.20;99.90
56162;DHT22;42045;52.986;6.014;2023-07-02T02:46:00;14.10;99.90
56162;DHT22;42045;52.986;6.014;2023-07-02T02:48:26;14.10;99.90
56162;DHT22;42045;52.986;6.014;2023-07-02T02:50:51;14.10;99.90
56162;DHT22;42045;52.986;6.014;2023-07-02T02:53:17;14.10;99.90
56162;DHT22;42045;52.986;6.014;2023-07-02T02:55:43;14.10;99.90
56162;DHT22;42045;52.986;6.014;2023-07-02T02:58:09;14.10;99.90
56162;DHT22;42045;52.986;6.014;2023-07-02T03:00:34;14.10;99.90
56162;DHT22;42045;52.986;6.014;2023-07-02T03:03:00;14.10;99.90
56162;DHT22;42045;52.986;6.014;2023-07-02T03:05:26;14.10;99.90
56162;DHT22;42045;52.986;6.014;2023-07-02T03:07:52;14.10;99.90
56162;DHT22;42045;52.986;6.014;2023-07-02T03:10:18;14.10;99.90
56162;DHT22;42045;52.986;6.014;2023-07-02T03:12:43;14.10;99.90
56162;DHT22;42045;52.986;6.014;2023-07-02T03:15:09;14.10;99.90
56162;DHT22;42045;52.986;6.014;2023-07-02T03:17:35;14.20;99.90
56162;DHT22;42045;52.986;6.014;2023-07-02T03:20:02;14.30;99.90
56162;DHT22;42045;52.986;6.014;2023-07-02T03:22:29;14.30;99.90
56162;DHT22;42045;52.986;6.014;2023-07-02T03:24:55;14.40;99.90
56162;DHT22;42045;52.986;6.014;2023-07-02T03:27:21;14.40;99.90
56162;DHT22;42045;52.986;6.014;2023-07-02T03:29:46;14.40;99.90
56162;DHT22;42045;52.986;6.014;2023-07-02T03:32:12;14.30;99.90
56162;DHT22;42045;52.986;6.014;2023-07-02T03:34:38;14.30;99.90
56162;DHT22;42045;52.986;6.014;2023-07-02T03:37:04;14.30;99.90
56162;DHT22;42045;52.986;6.014;2023-07-02T03:39:29;14.30;99.90
56162;DHT22;42045;52.986;6.014;2023-07-02T03:41:55;14.30;99.90
56162;DHT22;42045;52.986;6.014;2023-07-02T03:44:21;14.30;99.90
56162;DHT22;42045;52.986;6.014;2023-07-02T03:46:46;14.30;99.90
56162;DHT22;42045;52.986;6.014;2023-07-02T03:49:12;14.30;99.90
56162;DHT22;42045;52.986;6.014;2023-07-02T03:51:38;14.30;99.90
56162;DHT22;42045;52.986;6.014;2023-07-02T03:54:04;14.40;99.90
56162;DHT22;42045;52.986;6.014;2023-07-02T03:56:29;14.50;99.90
56162;DHT22;42045;52.986;6.014;2023-07-02T03:58:55;14.70;99.90
56162;DHT22;42045;52.986;6.014;2023-07-02T04:01:21;14.90;99.90
56162;DHT22;42045;52.986;6.014;2023-07-02T04:03:50;15.00;99.90
56162;DHT22;42045;52.986;6.014;2023-07-02T04:06:16;15.40;99.90
56162;DHT22;42045;52.986;6.014;2023-07-02T04:08:43;15.50;99.90
56162;DHT22;42045;52.986;6.014;2023-07-02T04:11:09;15.40;99.90
56162;DHT22;42045;52.986;6.014;2023-07-02T04:13:35;15.30;99.90
56162;DHT22;42045;52.986;6.014;2023-07-02T04:16:01;15.60;99.90
56162;DHT22;42045;52.986;6.014;2023-07-02T04:18:26;16.10;99.90
56162;DHT22;42045;52.986;6.014;2023-07-02T04:20:52;16.70;99.90
56162;DHT22;42045;52.986;6.014;2023-07-02T04:23:18;17.30;99.90
56162;DHT22;42045;52.986;6.014;2023-07-02T04:25:43;18.00;99.90
56162;DHT22;42045;52.986;6.014;2023-07-02T04:28:09;18.50;99.90
56162;DHT22;42045;52.986;6.014;2023-07-02T04:30:35;19.10;99.90
56162;DHT22;42045;52.986;6.014;2023-07-02T04:33:01;19.90;99.90
56162;DHT22;42045;52.986;6.014;2023-07-02T04:35:26;20.50;99.90
56162;DHT22;42045;52.986;6.014;2023-07-02T04:37:52;21.00;99.90
56162;DHT22;42045;52.986;6.014;2023-07-02T04:40:17;21.10;99.90
56162;DHT22;42045;52.986;6.014;2023-07-02T04:42:43;20.90;99.90
56162;DHT22;42045;52.986;6.014;2023-07-02T04:45:12;20.40;99.90
56162;DHT22;42045;52.986;6.014;2023-07-02T04:47:39;20.80;99.90
56162;DHT22;42045;52.986;6.014;2023-07-02T04:50:05;21.40;99.90
56162;DHT22;42045;52.986;6.014;2023-07-02T04:52:31;21.80;99.90
56162;DHT22;42045;52.986;6.014;2023-07-02T04:54:57;22.30;99.90
56162;DHT22;42045;52.986;6.014;2023-07-02T04:57:22;23.00;99.90
56162;DHT22;42045;52.986;6.014;2023-07-02T04:59:48;23.30;99.90
56162;DHT22;42045;52.986;6.014;2023-07-02T05:02:14;23.80;99.90
56162;DHT22;42045;52.986;6.014;2023-07-02T05:04:40;24.00;99.20
56162;DHT22;42045;52.986;6.014;2023-07-02T05:07:05;24.20;99.50
56162;DHT22;42045;52.986;6.014;2023-07-02T05:09:31;24.50;98.50
56162;DHT22;42045;52.986;6.014;2023-07-02T05:11:57;24.80;97.80
56162;DHT22;42045;52.986;6.014;2023-07-02T05:14:23;24.90;97.30
56162;DHT22;42045;52.986;6.014;2023-07-02T05:16:49;25.10;96.70
56162;DHT22;42045;52.986;6.014;2023-07-02T05:19:15;25.70;96.00
56162;DHT22;42045;52.986;6.014;2023-07-02T05:21:41;26.10;95.90
56162;DHT22;42045;52.986;6.014;2023-07-02T05:24:08;26.20;95.10
56162;DHT22;42045;52.986;6.014;2023-07-02T05:26:34;26.50;94.20
56162;DHT22;42045;52.986;6.014;2023-07-02T05:29:01;26.60;93.10
56162;DHT22;42045;52.986;6.014;2023-07-02T05:31:26;26.50;93.30
56162;DHT22;42045;52.986;6.014;2023-07-02T05:33:53;26.60;93.30
56162;DHT22;42045;52.986;6.014;2023-07-02T05:36:19;26.50;93.10
56162;DHT22;42045;52.986;6.014;2023-07-02T05:38:45;26.40;92.70
56162;DHT22;42045;52.986;6.014;2023-07-02T05:41:11;27.10;93.50
56162;DHT22;42045;52.986;6.014;2023-07-02T05:43:36;27.50;92.60
56162;DHT22;42045;52.986;6.014;2023-07-02T05:46:02;27.30;91.90
56162;DHT22;42045;52.986;6.014;2023-07-02T05:48:28;27.50;92.60
56162;DHT22;42045;52.986;6.014;2023-07-02T05:50:54;27.90;92.20
56162;DHT22;42045;52.986;6.014;2023-07-02T05:53:20;27.70;90.90
56162;DHT22;42045;52.986;6.014;2023-07-02T05:55:46;27.90;91.70
56162;DHT22;42045;52.986;6.014;2023-07-02T05:58:13;28.50;91.60
56162;DHT22;42045;52.986;6.014;2023-07-02T06:00:39;28.10;90.70
56162;DHT22;42045;52.986;6.014;2023-07-02T06:03:07;28.10;90.10
56162;DHT22;42045;52.986;6.014;2023-07-02T06:05:33;28.10;90.50
56162;DHT22;42045;52.986;6.014;2023-07-02T06:07:58;28.10;91.00
56162;DHT22;42045;52.986;6.014;2023-07-02T06:10:24;27.90;90.30
56162;DHT22;42045;52.986;6.014;2023-07-02T06:12:49;27.50;90.20
56162;DHT22;42045;52.986;6.014;2023-07-02T06:15:15;27.90;90.60
56162;DHT22;42045;52.986;6.014;2023-07-02T06:17:41;28.10;90.90
56162;DHT22;42045;52.986;6.014;2023-07-02T06:20:07;28.00;90.40
56162;DHT22;42045;52.986;6.014;2023-07-02T06:22:33;27.90;89.30
56162;DHT22;42045;52.986;6.014;2023-07-02T06:24:58;28.10;88.50
56162;DHT22;42045;52.986;6.014;2023-07-02T06:27:24;27.60;87.00
56162;DHT22;42045;52.986;6.014;2023-07-02T06:29:50;26.60;88.40
56162;DHT22;42045;52.986;6.014;2023-07-02T06:32:17;26.50;90.10
56162;DHT22;42045;52.986;6.014;2023-07-02T06:34:42;26.70;89.10
56162;DHT22;42045;52.986;6.014;2023-07-02T06:37:08;26.90;89.80
56162;DHT22;42045;52.986;6.014;2023-07-02T06:39:34;27.90;89.20
56162;DHT22;42045;52.986;6.014;2023-07-02T06:41:59;27.90;86.90
56162;DHT22;42045;52.986;6.014;2023-07-02T06:44:25;28.00;86.00
56162;DHT22;42045;52.986;6.014;2023-07-02T06:46:51;28.40;85.10
56162;DHT22;42045;52.986;6.014;2023-07-02T06:49:16;28.40;85.20
56162;DHT22;42045;52.986;6.014;2023-07-02T06:51:42;28.30;84.80
56162;DHT22;42045;52.986;6.014;2023-07-02T06:54:08;28.50;85.40
56162;DHT22;42045;52.986;6.014;2023-07-02T06:56:33;27.50;87.60
56162;DHT22;42045;52.986;6.014;2023-07-02T06:59:00;26.70;89.10
56162;DHT22;42045;52.986;6.014;2023-07-02T07:01:26;25.40;90.50
56162;DHT22;42045;52.986;6.014;2023-07-02T07:03:52;25.10;91.60
56162;DHT22;42045;52.986;6.014;2023-07-02T07:06:17;25.70;90.90
56162;DHT22;42045;52.986;6.014;2023-07-02T07:08:43;26.50;90.50
56162;DHT22;42045;52.986;6.014;2023-07-02T07:11:08;27.10;88.50
56162;DHT22;42045;52.986;6.014;2023-07-02T07:13:34;27.50;87.60
56162;DHT22;42045;52.986;6.014;2023-07-02T07:16:00;27.50;88.40
56162;DHT22;42045;52.986;6.014;2023-07-02T07:18:25;28.00;87.60
56162;DHT22;42045;52.986;6.014;2023-07-02T07:20:51;27.30;87.20
56162;DHT22;42045;52.986;6.014;2023-07-02T07:23:18;26.40;88.90
56162;DHT22;42045;52.986;6.014;2023-07-02T07:25:44;25.50;90.20
56162;DHT22;42045;52.986;6.014;2023-07-02T07:28:10;25.60;90.60
56162;DHT22;42045;52.986;6.014;2023-07-02T07:30:44;25.70;90.90
56162;DHT22;42045;52.986;6.014;2023-07-02T07:33:10;25.20;90.40
56162;DHT22;42045;52.986;6.014;2023-07-02T07:35:35;25.40;90.60
56162;DHT22;42045;52.986;6.014;2023-07-02T07:38:01;25.10;90.50
56162;DHT22;42045;52.986;6.014;2023-07-02T07:40:27;24.90;91.20
56162;DHT22;42045;52.986;6.014;2023-07-02T07:42:52;24.90;92.00
56162;DHT22;42045;52.986;6.014;2023-07-02T07:45:18;24.50;91.50
56162;DHT22;42045;52.986;6.014;2023-07-02T07:47:44;24.30;92.00
56162;DHT22;42045;52.986;6.014;2023-07-02T07:50:09;23.70;92.40
56162;DHT22;42045;52.986;6.014;2023-07-02T07:52:39;22.70;93.20
56162;DHT22;42045;52.986;6.014;2023-07-02T07:55:06;22.80;94.80
56162;DHT22;42045;52.986;6.014;2023-07-02T07:57:33;23.40;95.10
56162;DHT22;42045;52.986;6.014;2023-07-02T07:59:59;23.60;95.10
56162;DHT22;42045;52.986;6.014;2023-07-02T08:02:25;22.90;93.40
56162;DHT22;42045;52.986;6.014;2023-07-02T08:04:50;22.30;93.90
56162;DHT22;42045;52.986;6.014;2023-07-02T08:07:16;21.70;94.90
56162;DHT22;42045;52.986;6.014;2023-07-02T08:09:42;21.20;95.40
56162;DHT22;42045;52.986;6.014;2023-07-02T08:12:08;20.70;97.50
56162;DHT22;42045;52.986;6.014;2023-07-02T08:14:34;20.10;99.10
56162;DHT22;42045;52.986;6.014;2023-07-02T08:17:02;19.60;99.90
56162;DHT22;42045;52.986;6.014;2023-07-02T08:19:28;19.90;99.90
56162;DHT22;42045;52.986;6.014;2023-07-02T08:21:53;19.90;99.90
56162;DHT22;42045;52.986;6.014;2023-07-02T08:24:19;19.90;99.90
56162;DHT22;42045;52.986;6.014;2023-07-02T08:26:45;19.80;99.90
56162;DHT22;42045;52.986;6.014;2023-07-02T08:29:11;19.80;99.90
56162;DHT22;42045;52.986;6.014;2023-07-02T08:31:36;20.10;99.90
56162;DHT22;42045;52.986;6.014;2023-07-02T08:34:02;20.60;99.90
56162;DHT22;42045;52.986;6.014;2023-07-02T08:36:28;21.20;99.90
56162;DHT22;42045;52.986;6.014;2023-07-02T08:38:53;21.50;99.90
56162;DHT22;42045;52.986;6.014;2023-07-02T08:41:21;21.60;99.40
56162;DHT22;42045;52.986;6.014;2023-07-02T08:43:47;21.80;99.60
56162;DHT22;42045;52.986;6.014;2023-07-02T08:46:15;22.10;98.70
56162;DHT22;42045;52.986;6.014;2023-07-02T08:48:41;22.20;97.60
56162;DHT22;42045;52.986;6.014;2023-07-02T08:51:07;22.40;97.80
56162;DHT22;42045;52.986;6.014;2023-07-02T08:53:33;22.70;97.80
56162;DHT22;42045;52.986;6.014;2023-07-02T08:56:03;22.80;98.10
56162;DHT22;42045;52.986;6.014;2023-07-02T08:58:29;22.90;96.20
56162;DHT22;42045;52.986;6.014;2023-07-02T09:01:24;22.70;96.00
56162;DHT22;42045;52.986;6.014;2023-07-02T09:03:50;22.20;96.70
56162;DHT22;42045;52.986;6.014;2023-07-02T09:06:17;21.70;96.50
56162;DHT22;42045;52.986;6.014;2023-07-02T09:08:44;21.20;96.60
56162;DHT22;42045;52.986;6.014;2023-07-02T09:11:11;20.60;96.90
56162;DHT22;42045;52.986;6.014;2023-07-02T09:13:45;20.50;97.90
56162;DHT22;42045;52.986;6.014;2023-07-02T09:16:28;20.70;97.90
56162;DHT22;42045;52.986;6.014;2023-07-02T09:24:21;20.40;98.70
56162;DHT22;42045;52.986;6.014;2023-07-02T09:26:55;20.40;99.70
56162;DHT22;42045;52.986;6.014;2023-07-02T09:29:25;20.40;98.30
56162;DHT22;42045;52.986;6.014;2023-07-02T09:31:55;20.20;98.30
56162;DHT22;42045;52.986;6.014;2023-07-02T09:34:28;20.20;98.40
56162;DHT22;42045;52.986;6.014;2023-07-02T09:36:54;20.20;98.80
56162;DHT22;42045;52.986;6.014;2023-07-02T09:39:24;20.10;98.70
56162;DHT22;42045;52.986;6.014;2023-07-02T09:41:51;20.10;98.60
56162;DHT22;42045;52.986;6.014;2023-07-02T09:44:17;20.20;99.20
56162;DHT22;42045;52.986;6.014;2023-07-02T09:46:53;20.50;99.70
56162;DHT22;42045;52.986;6.014;2023-07-02T09:49:21;20.90;98.30
56162;DHT22;42045;52.986;6.014;2023-07-02T09:51:49;21.20;98.00
56162;DHT22;42045;52.986;6.014;2023-07-02T09:54:15;21.70;99.00
56162;DHT22;42045;52.986;6.014;2023-07-02T09:56:40;22.00;98.50
56162;DHT22;42045;52.986;6.014;2023-07-02T09:59:06;21.70;95.20
56162;DHT22;42045;52.986;6.014;2023-07-02T10:01:32;21.40;95.00
56162;DHT22;42045;52.986;6.014;2023-07-02T10:03:57;21.30;96.40
56162;DHT22;42045;52.986;6.014;2023-07-02T10:06:23;21.20;97.10
56162;DHT22;42045;52.986;6.014;2023-07-02T10:08:55;21.00;97.00
56162;DHT22;42045;52.986;6.014;2023-07-02T10:11:33;21.10;98.20
56162;DHT22;42045;52.986;6.014;2023-07-02T10:14:00;20.80;98.00
56162;DHT22;42045;52.986;6.014;2023-07-02T10:16:26;20.60;98.10
56162;DHT22;42045;52.986;6.014;2023-07-02T10:18:53;20.50;97.20
56162;DHT22;42045;52.986;6.014;2023-07-02T10:21:20;20.30;97.10
56162;DHT22;42045;52.986;6.014;2023-07-02T10:23:46;20.50;98.90
56162;DHT22;42045;52.986;6.014;2023-07-02T10:26:18;20.80;99.20
56162;DHT22;42045;52.986;6.014;2023-07-02T10:28:58;21.10;99.90
56162;DHT22;42045;52.986;6.014;2023-07-02T10:31:25;21.20;99.40
56162;DHT22;42045;52.986;6.014;2023-07-02T10:33:50;21.10;98.70
56162;DHT22;42045;52.986;6.014;2023-07-02T10:36:20;21.00;98.30
56162;DHT22;42045;52.986;6.014;2023-07-02T10:38:47;20.90;98.70
56162;DHT22;42045;52.986;6.014;2023-07-02T10:41:22;20.90;98.90
56162;DHT22;42045;52.986;6.014;2023-07-02T10:43:48;20.90;97.30
56162;DHT22;42045;52.986;6.014;2023-07-02T10:46:21;21.10;98.40
56162;DHT22;42045;52.986;6.014;2023-07-02T10:48:56;20.80;97.10
56162;DHT22;42045;52.986;6.014;2023-07-02T10:51:22;20.80;98.30
56162;DHT22;42045;52.986;6.014;2023-07-02T10:54:02;20.90;99.00
56162;DHT22;42045;52.986;6.014;2023-07-02T10:56:30;21.40;99.50
56162;DHT22;42045;52.986;6.014;2023-07-02T10:58:56;21.40;98.70
56162;DHT22;42045;52.986;6.014;2023-07-02T11:01:30;21.00;99.70
56162;DHT22;42045;52.986;6.014;2023-07-02T11:04:03;21.10;98.30
56162;DHT22;42045;52.986;6.014;2023-07-02T11:06:32;21.20;96.80
56162;DHT22;42045;52.986;6.014;2023-07-02T11:08:59;21.30;96.70
56162;DHT22;42045;52.986;6.014;2023-07-02T11:11:25;21.20;96.90
56162;DHT22;42045;52.986;6.014;2023-07-02T11:13:52;20.90;95.70
56162;DHT22;42045;52.986;6.014;2023-07-02T11:16:26;20.70;96.70
56162;DHT22;42045;52.986;6.014;2023-07-02T11:18:53;21.10;98.00
56162;DHT22;42045;52.986;6.014;2023-07-02T11:21:19;21.10;97.80
56162;DHT22;42045;52.986;6.014;2023-07-02T11:23:45;21.30;98.30
56162;DHT22;42045;52.986;6.014;2023-07-02T11:26:11;21.30;98.20
56162;DHT22;42045;52.986;6.014;2023-07-02T11:28:50;21.40;98.20
56162;DHT22;42045;52.986;6.014;2023-07-02T11:31:24;21.30;96.50
56162;DHT22;42045;52.986;6.014;2023-07-02T11:33:50;21.30;96.90
56162;DHT22;42045;52.986;6.014;2023-07-02T11:36:23;21.30;98.60
56162;DHT22;42045;52.986;6.014;2023-07-02T11:38:52;21.70;98.70
56162;DHT22;42045;52.986;6.014;2023-07-02T11:41:18;22.00;98.10
56162;DHT22;42045;52.986;6.014;2023-07-02T11:43:44;22.20;97.10
56162;DHT22;42045;52.986;6.014;2023-07-02T11:46:10;22.40;95.90
56162;DHT22;42045;52.986;6.014;2023-07-02T11:48:36;22.20;95.10
56162;DHT22;42045;52.986;6.014;2023-07-02T11:51:01;21.90;94.50
56162;DHT22;42045;52.986;6.014;2023-07-02T11:53:27;21.80;95.80
56162;DHT22;42045;52.986;6.014;2023-07-02T11:55:53;21.40;95.50
56162;DHT22;42045;52.986;6.014;2023-07-02T11:58:18;21.10;96.10
56162;DHT22;42045;52.986;6.014;2023-07-02T12:00:44;21.10;96.90
56162;DHT22;42045;52.986;6.014;2023-07-02T12:03:10;21.00;96.80
56162;DHT22;42045;52.986;6.014;2023-07-02T12:05:36;20.70;96.80
56162;DHT22;42045;52.986;6.014;2023-07-02T12:08:02;20.40;98.00
56162;DHT22;42045;52.986;6.014;2023-07-02T12:10:28;20.40;98.70
56162;DHT22;42045;52.986;6.014;2023-07-02T12:12:54;20.10;98.30
56162;DHT22;42045;52.986;6.014;2023-07-02T12:15:19;20.10;98.20
56162;DHT22;42045;52.986;6.014;2023-07-02T12:17:45;20.30;99.70
56162;DHT22;42045;52.986;6.014;2023-07-02T12:20:11;20.40;98.90
56162;DHT22;42045;52.986;6.014;2023-07-02T12:22:37;20.50;99.70
56162;DHT22;42045;52.986;6.014;2023-07-02T12:25:03;20.90;99.90
56162;DHT22;42045;52.986;6.014;2023-07-02T12:27:29;21.10;98.60
56162;DHT22;42045;52.986;6.014;2023-07-02T12:29:55;20.90;97.50
56162;DHT22;42045;52.986;6.014;2023-07-02T12:32:21;20.70;97.80
56162;DHT22;42045;52.986;6.014;2023-07-02T12:34:47;20.50;98.70
56162;DHT22;42045;52.986;6.014;2023-07-02T12:37:13;20.30;97.80
56162;DHT22;42045;52.986;6.014;2023-07-02T12:39:42;20.20;96.90
56162;DHT22;42045;52.986;6.014;2023-07-02T12:42:08;20.10;96.90
56162;DHT22;42045;52.986;6.014;2023-07-02T12:44:34;20.10;97.60
56162;DHT22;42045;52.986;6.014;2023-07-02T12:46:59;20.00;97.10
56162;DHT22;42045;52.986;6.014;2023-07-02T12:49:25;19.90;97.30
56162;DHT22;42045;52.986;6.014;2023-07-02T12:51:50;20.10;97.80
56162;DHT22;42045;52.986;6.014;2023-07-02T12:54:16;20.30;97.20
56162;DHT22;42045;52.986;6.014;2023-07-02T12:56:42;20.50;95.00
56162;DHT22;42045;52.986;6.014;2023-07-02T12:59:07;20.80;96.00
56162;DHT22;42045;52.986;6.014;2023-07-02T13:01:33;21.00;95.90
56162;DHT22;42045;52.986;6.014;2023-07-02T13:03:59;21.20;96.70
56162;DHT22;42045;52.986;6.014;2023-07-02T13:06:25;21.70;98.00
56162;DHT22;42045;52.986;6.014;2023-07-02T13:08:50;21.80;95.00
56162;DHT22;42045;52.986;6.014;2023-07-02T13:11:17;22.00;94.60
56162;DHT22;42045;52.986;6.014;2023-07-02T13:13:42;22.10;95.80
56162;DHT22;42045;52.986;6.014;2023-07-02T13:16:08;22.20;96.10
56162;DHT22;42045;52.986;6.014;2023-07-02T13:18:33;22.20;95.40
56162;DHT22;42045;52.986;6.014;2023-07-02T13:20:59;22.10;95.50
56162;DHT22;42045;52.986;6.014;2023-07-02T13:23:25;22.10;95.30
56162;DHT22;42045;52.986;6.014;2023-07-02T13:25:50;22.30;95.90
56162;DHT22;42045;52.986;6.014;2023-07-02T13:28:16;22.20;95.20
56162;DHT22;42045;52.986;6.014;2023-07-02T13:30:42;22.20;96.00
56162;DHT22;42045;52.986;6.014;2023-07-02T13:33:07;21.70;96.00
56162;DHT22;42045;52.986;6.014;2023-07-02T13:35:33;21.70;96.90
56162;DHT22;42045;52.986;6.014;2023-07-02T13:37:59;21.40;94.40
56162;DHT22;42045;52.986;6.014;2023-07-02T13:40:25;21.20;95.30
56162;DHT22;42045;52.986;6.014;2023-07-02T13:42:51;20.90;95.40
56162;DHT22;42045;52.986;6.014;2023-07-02T13:45:16;20.70;96.40
56162;DHT22;42045;52.986;6.014;2023-07-02T13:47:42;20.60;97.40
56162;DHT22;42045;52.986;6.014;2023-07-02T13:50:08;20.60;97.10
56162;DHT22;42045;52.986;6.014;2023-07-02T13:52:34;20.70;97.70
56162;DHT22;42045;52.986;6.014;2023-07-02T13:54:59;20.50;96.50
56162;DHT22;42045;52.986;6.014;2023-07-02T13:57:25;20.40;96.40
56162;DHT22;42045;52.986;6.014;2023-07-02T13:59:51;20.20;96.50
56162;DHT22;42045;52.986;6.014;2023-07-02T14:02:16;20.20;97.00
56162;DHT22;42045;52.986;6.014;2023-07-02T14:04:43;20.50;97.10
56162;DHT22;42045;52.986;6.014;2023-07-02T14:07:09;20.60;96.60
56162;DHT22;42045;52.986;6.014;2023-07-02T14:09:35;20.70;97.00
56162;DHT22;42045;52.986;6.014;2023-07-02T14:12:03;20.70;95.30
56162;DHT22;42045;52.986;6.014;2023-07-02T14:14:28;20.70;96.00
56162;DHT22;42045;52.986;6.014;2023-07-02T14:16:54;20.40;96.30
56162;DHT22;42045;52.986;6.014;2023-07-02T14:19:20;20.50;96.00
56162;DHT22;42045;52.986;6.014;2023-07-02T14:21:45;20.20;95.50
56162;DHT22;42045;52.986;6.014;2023-07-02T14:24:12;20.10;96.20
56162;DHT22;42045;52.986;6.014;2023-07-02T14:26:37;20.00;96.00
56162;DHT22;42045;52.986;6.014;2023-07-02T14:29:03;20.10;96.20
56162;DHT22;42045;52.986;6.014;2023-07-02T14:31:29;19.90;95.00
56162;DHT22;42045;52.986;6.014;2023-07-02T14:33:55;19.90;96.10
56162;DHT22;42045;52.986;6.014;2023-07-02T14:36:21;20.00;95.80
56162;DHT22;42045;52.986;6.014;2023-07-02T14:38:46;19.90;95.80
56162;DHT22;42045;52.986;6.014;2023-07-02T14:41:12;19.90;96.00
56162;DHT22;42045;52.986;6.014;2023-07-02T14:43:38;19.90;95.40
56162;DHT22;42045;52.986;6.014;2023-07-02T14:46:04;19.80;95.40
56162;DHT22;42045;52.986;6.014;2023-07-02T14:48:30;19.70;95.30
56162;DHT22;42045;52.986;6.014;2023-07-02T14:50:58;19.70;95.20
56162;DHT22;42045;52.986;6.014;2023-07-02T14:53:25;19.70;94.60
56162;DHT22;42045;52.986;6.014;2023-07-02T14:55:57;19.70;94.40
56162;DHT22;42045;52.986;6.014;2023-07-02T14:58:23;19.70;94.60
56162;DHT22;42045;52.986;6.014;2023-07-02T15:00:52;19.70;94.80
56162;DHT22;42045;52.986;6.014;2023-07-02T15:03:19;19.70;94.80
56162;DHT22;42045;52.986;6.014;2023-07-02T15:05:46;19.70;94.80
56162;DHT22;42045;52.986;6.014;2023-07-02T15:08:12;19.70;94.70
56162;DHT22;42045;52.986;6.014;2023-07-02T15:10:39;19.70;95.30
56162;DHT22;42045;52.986;6.014;2023-07-02T15:13:08;19.60;95.20
56162;DHT22;42045;52.986;6.014;2023-07-02T15:15:35;19.70;95.10
56162;DHT22;42045;52.986;6.014;2023-07-02T15:18:02;19.80;94.00
56162;DHT22;42045;52.986;6.014;2023-07-02T15:20:28;20.00;94.80
56162;DHT22;42045;52.986;6.014;2023-07-02T15:22:54;20.00;94.60
56162;DHT22;42045;52.986;6.014;2023-07-02T15:25:19;20.00;94.70
56162;DHT22;42045;52.986;6.014;2023-07-02T15:27:45;19.90;95.10
56162;DHT22;42045;52.986;6.014;2023-07-02T15:30:11;19.80;95.40
56162;DHT22;42045;52.986;6.014;2023-07-02T15:32:36;19.90;95.70